createdAt,value
2019-02-25T00:00:31.771Z,65.70
2019-02-25T00:03:01.286Z,65.80
2019-02-25T00:05:30.593Z,65.80
2019-02-25T00:07:59.869Z,66.30
2019-02-25T00:10:29.166Z,66.40
2019-02-25T00:12:58.410Z,66.50
2019-02-25T00:15:28.003Z,66.40
2019-02-25T00:17:57.273Z,66.20
2019-02-25T00:20:26.594Z,65.90
2019-02-25T00:22:55.839Z,66.30
2019-02-25T00:25:25.215Z,67.10
2019-02-25T00:27:54.501Z,67.30
2019-02-25T00:30:23.758Z,67.00
2019-02-25T00:32:53.085Z,67.10
2019-02-25T00:35:24.723Z,67.00
2019-02-25T00:37:54.059Z,66.50
2019-02-25T00:40:23.448Z,66.90
2019-02-25T00:42:52.638Z,67.10
2019-02-25T00:45:21.993Z,66.70
2019-02-25T00:47:51.447Z,66.60
2019-02-25T00:50:21.875Z,66.80
2019-02-25T00:52:51.074Z,66.90
2019-02-25T00:55:21.692Z,66.40
2019-02-25T00:57:50.978Z,66.30
2019-02-25T01:00:24.588Z,67.40
2019-02-25T01:02:53.917Z,67.10
2019-02-25T01:05:23.741Z,66.80
2019-02-25T01:07:53.094Z,67.00
2019-02-25T01:10:22.378Z,68.60
2019-02-25T01:12:51.668Z,69.20
2019-02-25T01:15:20.999Z,69.00
2019-02-25T01:17:50.344Z,69.30
2019-02-25T01:20:19.677Z,68.00
2019-02-25T01:22:48.979Z,67.00
2019-02-25T01:25:18.229Z,67.10
2019-02-25T01:27:47.509Z,66.60
2019-02-25T01:30:18.846Z,66.60
2019-02-25T01:32:48.201Z,66.10
2019-02-25T01:35:17.547Z,66.70
2019-02-25T01:37:47.113Z,66.00
2019-02-25T01:40:16.300Z,65.70
2019-02-25T01:42:45.503Z,65.60
2019-02-25T01:45:20.835Z,65.60
2019-02-25T01:47:50.079Z,64.60
2019-02-25T01:50:19.355Z,65.10
2019-02-25T01:52:48.590Z,65.70
2019-02-25T01:55:17.907Z,65.70
2019-02-25T01:57:47.149Z,65.70
2019-02-25T02:00:17.463Z,66.60
2019-02-25T02:02:46.726Z,67.20
2019-02-25T02:05:16.013Z,67.10
2019-02-25T02:07:45.273Z,68.00
2019-02-25T02:10:15.533Z,67.80
2019-02-25T02:12:44.861Z,68.10
2019-02-25T02:15:18.470Z,67.70
2019-02-25T02:17:47.679Z,68.00
2019-02-25T02:20:17.383Z,67.30
2019-02-25T02:22:46.571Z,65.90
2019-02-25T02:25:15.924Z,65.20
2019-02-25T02:27:45.190Z,64.70
2019-02-25T02:30:17.573Z,64.50
2019-02-25T02:32:46.972Z,64.60
2019-02-25T02:35:16.430Z,64.30
2019-02-25T02:37:45.688Z,64.90
2019-02-25T02:40:15.204Z,64.70
2019-02-25T02:42:56.675Z,65.20
2019-02-25T02:45:31.646Z,65.40
2019-02-25T02:48:04.366Z,66.00
2019-02-25T02:50:33.776Z,66.00
2019-02-25T02:53:03.247Z,65.40
2019-02-25T02:55:32.674Z,65.80
2019-02-25T02:58:01.893Z,65.80
2019-02-25T03:00:31.237Z,65.20
2019-02-25T03:03:00.683Z,64.80
2019-02-25T03:05:30.036Z,64.70
2019-02-25T03:07:59.300Z,65.00
2019-02-25T03:10:28.556Z,64.80
2019-02-25T03:12:57.930Z,64.40
2019-02-25T03:15:27.226Z,64.20
2019-02-25T03:17:56.489Z,65.70
2019-02-25T03:20:25.783Z,66.00
2019-02-25T03:22:54.980Z,65.70
2019-02-25T03:25:24.364Z,65.60
2019-02-25T03:27:53.667Z,64.60
2019-02-25T03:30:23.110Z,64.80
2019-02-25T03:32:52.523Z,65.10
2019-02-25T03:35:21.748Z,65.50
2019-02-25T03:37:50.958Z,65.40
2019-02-25T03:40:21.860Z,65.40
2019-02-25T03:42:51.218Z,66.20
2019-02-25T03:45:20.823Z,66.50
2019-02-25T03:47:50.183Z,66.90
2019-02-25T03:50:19.454Z,66.50
2019-02-25T03:52:48.811Z,66.00
2019-02-25T03:55:22.690Z,66.50
2019-02-25T03:57:51.982Z,65.90
2019-02-25T04:00:25.221Z,66.90
2019-02-25T04:02:54.553Z,67.40
2019-02-25T04:05:23.742Z,68.50
2019-02-25T04:07:52.936Z,68.00
2019-02-25T04:10:22.179Z,68.20
2019-02-25T04:12:51.465Z,68.80
2019-02-25T04:15:20.798Z,68.40
2019-02-25T04:17:50.279Z,70.00
2019-02-25T04:20:21.220Z,70.10
2019-02-25T04:22:50.434Z,70.00
2019-02-25T04:25:19.704Z,69.50
2019-02-25T04:27:48.884Z,69.60
2019-02-25T04:30:18.253Z,68.80
2019-02-25T04:32:47.592Z,70.10
2019-02-25T04:35:16.814Z,70.50
2019-02-25T04:37:46.085Z,69.60
2019-02-25T04:40:15.367Z,68.70
2019-02-25T04:42:44.632Z,70.10
2019-02-25T04:45:18.780Z,68.90
2019-02-25T04:47:48.190Z,70.20
2019-02-25T04:50:17.500Z,70.10
2019-02-25T04:52:47.051Z,70.80
2019-02-25T04:55:17.014Z,70.20
2019-02-25T04:57:46.233Z,70.70
2019-02-25T05:00:20.846Z,70.60
2019-02-25T05:02:50.203Z,70.40
2019-02-25T05:05:19.510Z,70.00
2019-02-25T05:07:48.764Z,70.00
2019-02-25T05:10:18.138Z,70.60
2019-02-25T05:12:47.496Z,69.50
2019-02-25T05:15:16.788Z,69.80
2019-02-25T05:17:46.047Z,70.10
2019-02-25T05:20:15.346Z,69.90
2019-02-25T05:22:44.539Z,70.50
2019-02-25T05:25:13.885Z,70.60
2019-02-25T05:27:43.158Z,70.90
2019-02-25T05:30:14.771Z,71.90
2019-02-25T05:32:44.114Z,72.20
2019-02-25T05:35:13.616Z,72.60
2019-02-25T05:37:42.876Z,72.60
2019-02-25T05:40:17.138Z,73.20
2019-02-25T05:42:46.468Z,72.40
2019-02-25T05:45:15.837Z,72.60
2019-02-25T05:47:46.299Z,71.80
2019-02-25T05:50:22.174Z,72.00
2019-02-25T05:52:51.662Z,71.90
2019-02-25T05:55:20.987Z,71.90
2019-02-25T05:57:50.449Z,71.80
2019-02-25T06:00:22.398Z,72.60
2019-02-25T06:02:51.613Z,72.90
2019-02-25T06:05:20.901Z,72.60
2019-02-25T06:07:50.252Z,72.90
2019-02-25T06:10:19.519Z,73.70
2019-02-25T06:13:08.149Z,75.30
2019-02-25T06:15:37.329Z,75.50
2019-02-25T06:18:06.630Z,76.70
2019-02-25T06:20:35.964Z,75.50
2019-02-25T06:23:06.799Z,76.40
2019-02-25T06:25:35.977Z,75.90
2019-02-25T06:28:05.350Z,75.40
2019-02-25T06:30:34.765Z,75.70
2019-02-25T06:33:04.054Z,76.10
2019-02-25T06:35:33.413Z,76.40
2019-02-25T06:38:02.774Z,75.90
2019-02-25T06:40:32.720Z,76.30
2019-02-25T06:43:01.928Z,76.10
2019-02-25T06:45:33.440Z,76.10
2019-02-25T06:48:02.873Z,76.20
2019-02-25T06:50:32.149Z,76.30
2019-02-25T06:53:01.441Z,76.40
2019-02-25T06:55:30.741Z,77.60
2019-02-25T06:58:00.220Z,77.20
2019-02-25T07:00:29.560Z,76.80
2019-02-25T07:02:58.872Z,76.90
2019-02-25T07:05:28.179Z,76.80
2019-02-25T07:07:57.508Z,77.50
2019-02-25T07:10:26.749Z,77.50
2019-02-25T07:12:55.940Z,77.20
2019-02-25T07:15:25.878Z,77.20
2019-02-25T07:17:55.221Z,76.80
2019-02-25T07:20:24.674Z,76.50
2019-02-25T07:22:54.029Z,76.60
2019-02-25T07:25:23.325Z,77.00
2019-02-25T07:27:52.545Z,78.10
2019-02-25T07:30:21.917Z,78.50
2019-02-25T07:32:51.201Z,78.00
2019-02-25T07:35:20.572Z,77.50
2019-02-25T07:37:51.644Z,77.10
2019-02-25T07:40:20.667Z,78.20
2019-02-25T07:42:50.070Z,77.20
2019-02-25T07:45:19.264Z,77.40
2019-02-25T07:47:48.550Z,77.40
2019-02-25T07:50:17.919Z,77.60
2019-02-25T07:52:47.196Z,78.00
2019-02-25T07:55:16.502Z,78.40
2019-02-25T07:57:45.904Z,78.80
2019-02-25T08:00:15.240Z,79.10
2019-02-25T08:02:44.514Z,79.10
2019-02-25T08:05:13.860Z,78.50
2019-02-25T08:07:43.164Z,78.30
2019-02-25T08:10:12.449Z,78.00
2019-02-25T08:12:41.750Z,77.40
2019-02-25T08:15:11.020Z,77.10
2019-02-25T08:17:40.400Z,77.10
2019-02-25T08:20:09.735Z,76.50
2019-02-25T08:22:39.068Z,76.30
2019-02-25T08:25:08.453Z,76.50
2019-02-25T08:27:37.934Z,75.30
2019-02-25T08:30:10.158Z,75.50
2019-02-25T08:32:39.456Z,74.60
2019-02-25T08:35:11.750Z,73.80
2019-02-25T08:37:44.080Z,73.90
2019-02-25T08:40:22.206Z,74.40
2019-02-25T08:42:50.348Z,73.60
2019-02-25T08:45:19.717Z,73.90
2019-02-25T08:47:48.922Z,71.70
2019-02-25T08:50:18.351Z,72.00
2019-02-25T08:52:47.632Z,71.50
2019-02-25T08:55:16.981Z,72.30
2019-02-25T08:57:46.229Z,71.60
2019-02-25T09:00:15.592Z,71.40
2019-02-25T09:02:44.871Z,70.30
2019-02-25T09:05:14.281Z,71.80
2019-02-25T09:07:43.552Z,70.60
2019-02-25T09:10:13.720Z,70.50
2019-02-25T09:12:42.993Z,67.30
2019-02-25T09:15:15.239Z,66.70
2019-02-25T09:17:43.440Z,67.00
2019-02-25T09:20:15.741Z,67.50
2019-02-25T09:22:44.924Z,66.70
2019-02-25T09:25:14.951Z,65.90
2019-02-25T09:27:44.208Z,67.40
2019-02-25T09:30:20.167Z,63.90
2019-02-25T09:32:49.388Z,64.00
2019-02-25T09:35:18.731Z,63.70
2019-02-25T09:37:47.999Z,60.80
2019-02-25T09:40:18.268Z,62.70
2019-02-25T09:42:47.479Z,62.90
2019-02-25T09:45:17.269Z,62.70
2019-02-25T09:47:46.599Z,62.30
2019-02-25T09:50:20.415Z,62.50
2019-02-25T09:52:49.704Z,63.60
2019-02-25T09:55:18.988Z,61.70
2019-02-25T09:57:48.280Z,61.70
2019-02-25T10:00:23.944Z,61.20
2019-02-25T10:02:53.328Z,61.40
2019-02-25T10:05:22.583Z,60.20
2019-02-25T10:07:52.059Z,60.00
2019-02-25T10:10:21.334Z,60.90
2019-02-25T10:12:50.555Z,61.50
2019-02-25T10:15:22.057Z,61.90
2019-02-25T10:17:51.318Z,62.00
2019-02-25T10:20:20.723Z,61.00
2019-02-25T10:22:50.016Z,62.10
2019-02-25T10:25:19.250Z,61.80
2019-02-25T10:27:49.633Z,61.10
2019-02-25T10:30:20.343Z,59.90
2019-02-25T10:32:49.565Z,60.20
2019-02-25T10:35:27.197Z,61.00
2019-02-25T10:37:56.658Z,60.70
2019-02-25T10:40:27.565Z,62.60
2019-02-25T10:42:57.095Z,63.10
2019-02-25T10:45:26.379Z,63.40
2019-02-25T10:47:58.691Z,61.90
2019-02-25T10:50:28.693Z,62.80
2019-02-25T10:53:03.494Z,64.00
2019-02-25T10:55:46.721Z,64.50
2019-02-25T10:58:15.828Z,65.00
2019-02-25T11:00:46.081Z,63.80
2019-02-25T11:03:17.391Z,63.50
2019-02-25T11:05:46.448Z,64.70
2019-02-25T11:08:15.933Z,65.60
2019-02-25T11:10:46.942Z,63.70
2019-02-25T11:13:16.555Z,64.30
2019-02-25T11:15:48.142Z,63.80
2019-02-25T11:18:19.159Z,64.30
2019-02-25T11:20:47.998Z,65.50
2019-02-25T11:23:19.292Z,66.00
2019-02-25T11:25:48.457Z,67.00
2019-02-25T11:28:25.410Z,67.70
2019-02-25T11:30:51.422Z,67.30
2019-02-25T11:33:22.749Z,67.50
2019-02-25T11:35:52.176Z,67.30
2019-02-25T11:38:21.447Z,67.30
2019-02-25T11:40:50.662Z,67.40
2019-02-25T11:43:21.552Z,67.40
2019-02-25T11:45:51.093Z,67.10
2019-02-25T11:48:20.296Z,66.60
2019-02-25T11:50:49.528Z,66.90
2019-02-25T11:53:18.907Z,67.00
2019-02-25T11:55:48.128Z,66.70
2019-02-25T11:58:17.387Z,67.90
2019-02-25T12:00:46.721Z,67.10
2019-02-25T12:03:15.941Z,67.90
2019-02-25T12:05:45.255Z,67.30
2019-02-25T12:08:14.522Z,67.90
2019-02-25T12:10:43.795Z,67.50
2019-02-25T12:13:14.389Z,67.60
2019-02-25T12:15:43.589Z,67.20
2019-02-25T12:18:12.892Z,67.40
2019-02-25T12:20:42.180Z,66.80
2019-02-25T12:23:11.515Z,65.90
2019-02-25T12:25:40.821Z,65.70
2019-02-25T12:28:10.129Z,66.00
2019-02-25T12:30:39.467Z,67.30
2019-02-25T12:33:09.206Z,66.50
2019-02-25T12:35:38.405Z,66.70
2019-02-25T12:38:07.626Z,67.00
2019-02-25T12:40:36.950Z,67.10
2019-02-25T12:43:06.236Z,67.40
2019-02-25T12:45:35.432Z,68.00
2019-02-25T12:48:04.683Z,68.70
2019-02-25T12:50:34.081Z,68.70
2019-02-25T12:53:03.327Z,70.00
2019-02-25T12:55:32.588Z,68.80
2019-02-25T12:58:01.785Z,69.60
2019-02-25T13:00:31.006Z,69.20
2019-02-25T13:03:00.479Z,69.70
2019-02-25T13:05:29.820Z,69.10
2019-02-25T13:07:59.041Z,71.30
2019-02-25T13:10:28.318Z,68.40
2019-02-25T13:12:57.581Z,69.50
2019-02-25T13:15:26.811Z,69.00
2019-02-25T13:17:56.045Z,70.20
2019-02-25T13:20:25.381Z,71.10
2019-02-25T13:22:54.651Z,70.60
2019-02-25T13:25:29.454Z,69.70
2019-02-25T13:28:00.980Z,71.00
2019-02-25T13:30:29.790Z,70.80
2019-02-25T13:32:59.262Z,69.30
2019-02-25T13:35:28.640Z,69.50
2019-02-25T13:37:57.979Z,69.20
2019-02-25T13:40:27.477Z,68.90
2019-02-25T13:42:56.841Z,69.70
2019-02-25T13:45:26.228Z,68.70
2019-02-25T13:47:55.573Z,68.10
2019-02-25T13:50:25.415Z,67.50
2019-02-25T13:52:54.690Z,67.30
2019-02-25T13:55:24.200Z,67.60
2019-02-25T13:57:53.688Z,66.90
2019-02-25T14:00:27.443Z,67.00
2019-02-25T14:02:56.808Z,67.00
2019-02-25T14:05:26.248Z,67.30
2019-02-25T14:07:55.674Z,68.80
2019-02-25T14:10:25.052Z,69.00
2019-02-25T14:12:54.501Z,70.50
2019-02-25T14:15:24.245Z,69.80
2019-02-25T14:17:53.651Z,70.30
2019-02-25T14:20:24.307Z,68.40
2019-02-25T14:22:53.654Z,69.50
2019-02-25T14:25:28.188Z,69.20
2019-02-25T14:27:57.969Z,70.50
2019-02-25T14:30:30.486Z,68.70
2019-02-25T14:32:59.081Z,67.30
2019-02-25T14:35:32.260Z,68.40
2019-02-25T14:38:10.394Z,67.90
2019-02-25T14:40:39.714Z,66.80
2019-02-25T14:43:12.680Z,66.60
2019-02-25T14:45:42.068Z,67.90
2019-02-25T14:48:15.480Z,66.60
2019-02-25T14:50:42.994Z,67.10
2019-02-25T14:53:14.385Z,68.20
2019-02-25T14:55:46.835Z,68.10
2019-02-25T14:58:15.550Z,68.30
2019-02-25T15:00:45.357Z,69.20
2019-02-25T15:03:14.735Z,69.40
2019-02-25T15:05:44.387Z,69.40
2019-02-25T15:08:13.839Z,68.50
2019-02-25T15:10:43.189Z,65.30
2019-02-25T15:13:12.714Z,66.10
2019-02-25T15:15:44.099Z,63.90
2019-02-25T15:18:13.171Z,63.20
2019-02-25T15:20:42.537Z,64.50
2019-02-25T15:23:14.581Z,63.80
2019-02-25T15:25:44.815Z,62.70
2019-02-25T15:28:15.665Z,62.80
2019-02-25T15:30:44.807Z,61.60
2019-02-25T15:33:14.166Z,61.20
2019-02-25T15:35:43.906Z,62.30
2019-02-25T15:38:13.304Z,63.20
2019-02-25T15:40:42.917Z,63.70
2019-02-25T15:43:15.396Z,64.10
2019-02-25T15:45:44.517Z,64.00
2019-02-25T15:48:19.294Z,64.30
2019-02-25T15:50:55.554Z,64.00
2019-02-25T15:53:25.678Z,64.90
2019-02-25T15:55:57.198Z,64.30
2019-02-25T15:58:26.140Z,64.30
2019-02-25T16:00:55.488Z,64.60
2019-02-25T16:03:25.436Z,64.70
2019-02-25T16:05:57.918Z,65.90
2019-02-25T16:08:26.089Z,64.50
2019-02-25T16:10:57.953Z,64.70
2019-02-25T16:13:27.674Z,64.50
2019-02-25T16:15:57.085Z,64.70
2019-02-25T16:18:27.832Z,65.40
2019-02-25T16:20:59.752Z,64.80
2019-02-25T16:23:30.159Z,65.40
2019-02-25T16:25:59.721Z,65.30
2019-02-25T16:28:29.545Z,65.60
2019-02-25T16:30:59.919Z,66.40
2019-02-25T16:33:30.800Z,66.30
2019-02-25T16:36:01.249Z,67.00
2019-02-25T16:38:32.020Z,67.00
2019-02-25T16:41:03.702Z,67.50
2019-02-25T16:43:33.050Z,67.90
2019-02-25T16:46:06.094Z,68.50
2019-02-25T16:48:33.509Z,69.00
2019-02-25T16:51:05.006Z,68.90
2019-02-25T16:53:36.967Z,69.60
2019-02-25T16:56:05.760Z,69.60
2019-02-25T16:58:36.431Z,70.30
2019-02-25T17:01:07.979Z,70.30
2019-02-25T17:03:37.669Z,70.70
2019-02-25T17:06:09.170Z,70.80
2019-02-25T17:08:38.985Z,70.90
2019-02-25T17:11:08.388Z,70.90
2019-02-25T17:13:39.831Z,71.20
2019-02-25T17:16:17.828Z,71.80
2019-02-25T17:18:40.824Z,71.90
2019-02-25T17:21:10.098Z,71.80
2019-02-25T17:23:39.414Z,72.00
2019-02-25T17:26:10.563Z,72.40
2019-02-25T17:28:39.890Z,72.40
2019-02-25T17:31:11.131Z,72.90
2019-02-25T17:33:40.155Z,73.10
2019-02-25T17:36:10.205Z,72.90
2019-02-25T17:38:41.010Z,73.20
2019-02-25T17:41:12.750Z,73.40
2019-02-25T17:43:43.085Z,73.40
2019-02-25T17:46:14.059Z,73.70
2019-02-25T17:48:45.925Z,74.10
2019-02-25T17:51:16.209Z,74.30
2019-02-25T17:53:46.404Z,74.50
2019-02-25T17:56:18.144Z,74.60
2019-02-25T17:58:47.627Z,74.80
2019-02-25T18:01:19.043Z,75.10
2019-02-25T18:03:48.284Z,75.30
2019-02-25T18:06:22.960Z,75.30
2019-02-25T18:08:57.682Z,75.60
2019-02-25T18:11:27.068Z,75.80
2019-02-25T18:13:57.826Z,75.90
2019-02-25T18:16:27.286Z,76.80
2019-02-25T18:18:56.873Z,76.50
2019-02-25T18:21:28.878Z,76.40
2019-02-25T18:23:57.678Z,76.40
2019-02-25T18:26:28.579Z,76.40
2019-02-25T18:28:58.225Z,76.60
2019-02-25T18:31:27.909Z,76.50
2019-02-25T18:33:57.296Z,76.80
2019-02-25T18:36:28.820Z,76.70
2019-02-25T18:39:06.481Z,76.90
2019-02-25T18:41:35.872Z,77.10
2019-02-25T18:44:06.916Z,77.20
2019-02-25T18:46:36.307Z,77.00
2019-02-25T18:49:07.417Z,77.00
2019-02-25T18:51:37.473Z,77.00
2019-02-25T18:54:08.095Z,77.10
2019-02-25T18:56:40.235Z,77.30
2019-02-25T18:59:15.017Z,77.00
2019-02-25T19:01:43.433Z,77.00
2019-02-25T19:04:13.763Z,77.00
2019-02-25T19:06:45.686Z,77.00
2019-02-25T19:09:18.234Z,77.00
2019-02-25T19:11:49.190Z,77.10
2019-02-25T19:14:21.836Z,77.00
2019-02-25T19:16:50.629Z,77.10
2019-02-25T19:19:20.158Z,78.30
2019-02-25T19:21:50.501Z,77.40
2019-02-25T19:24:20.921Z,77.40
2019-02-25T19:26:50.575Z,77.40
2019-02-25T19:29:22.145Z,77.50
2019-02-25T19:31:52.648Z,77.90
2019-02-25T19:34:22.716Z,77.80
2019-02-25T19:36:52.148Z,78.10
2019-02-25T19:39:21.709Z,78.30
2019-02-25T19:41:51.620Z,78.40
2019-02-25T19:44:22.071Z,78.40
2019-02-25T19:46:53.811Z,78.70
2019-02-25T19:49:22.485Z,78.90
2019-02-25T19:51:52.736Z,79.20
2019-02-25T19:54:22.167Z,79.20
2019-02-25T19:56:53.766Z,79.20
2019-02-25T19:59:24.152Z,79.00
2019-02-25T20:01:53.798Z,79.00
2019-02-25T20:04:23.263Z,79.20
2019-02-25T20:06:53.714Z,79.10
2019-02-25T20:09:23.676Z,79.10
2019-02-25T20:11:53.054Z,79.50
2019-02-25T20:14:22.476Z,79.80
2019-02-25T20:16:51.758Z,80.60
2019-02-25T20:19:21.426Z,79.90
2019-02-25T20:21:52.447Z,79.90
2019-02-25T20:24:23.481Z,80.30
2019-02-25T20:26:57.494Z,80.40
2019-02-25T20:29:24.409Z,80.20
2019-02-25T20:31:55.951Z,80.10
2019-02-25T20:34:27.572Z,80.30
2019-02-25T20:36:59.053Z,81.60
2019-02-25T20:39:28.220Z,83.00
2019-02-25T20:41:58.691Z,83.20
2019-02-25T20:44:30.594Z,83.70
2019-02-25T20:47:01.964Z,85.10
2019-02-25T20:49:31.907Z,84.80
2019-02-25T20:52:01.449Z,84.90
2019-02-25T20:54:37.938Z,85.60
2019-02-25T20:57:05.622Z,86.40
2019-02-25T20:59:35.022Z,86.20
2019-02-25T21:02:04.847Z,87.10
2019-02-25T21:04:36.842Z,87.00
2019-02-25T21:07:07.109Z,86.20
2019-02-25T21:09:38.343Z,86.60
2019-02-25T21:12:10.316Z,88.80
2019-02-25T21:14:41.138Z,89.00
2019-02-25T21:17:10.865Z,89.30
2019-02-25T21:19:42.027Z,88.90
2019-02-25T21:22:11.950Z,89.00
2019-02-25T21:24:41.225Z,89.00
2019-02-25T21:27:10.797Z,90.00
2019-02-25T21:29:44.078Z,90.00
2019-02-25T21:32:17.187Z,90.20
2019-02-25T21:34:46.483Z,90.70
2019-02-25T21:37:15.511Z,90.60
2019-02-25T21:39:44.804Z,90.30
2019-02-25T21:42:15.361Z,90.50
2019-02-25T21:44:46.337Z,90.30
2019-02-25T21:47:15.956Z,90.20
2019-02-25T21:49:45.699Z,90.40
2019-02-25T21:52:15.908Z,90.70
2019-02-25T21:54:45.969Z,90.30
2019-02-25T21:57:15.309Z,90.70
2019-02-25T21:59:44.506Z,91.00
2019-02-25T22:02:13.790Z,90.90
2019-02-25T22:04:44.888Z,90.90
2019-02-25T22:07:16.986Z,90.90
2019-02-25T22:09:45.956Z,91.20
2019-02-25T22:12:15.526Z,91.10
2019-02-25T22:14:46.046Z,91.20
2019-02-25T22:17:17.935Z,91.00
2019-02-25T22:19:48.054Z,91.20
2019-02-25T22:22:19.351Z,91.30
2019-02-25T22:24:48.573Z,91.20
2019-02-25T22:27:18.557Z,91.10
2019-02-25T22:29:48.796Z,91.30
2019-02-25T22:32:18.204Z,91.30
2019-02-25T22:34:47.492Z,91.10
2019-02-25T22:37:19.293Z,91.20
2019-02-25T22:39:48.265Z,91.30
2019-02-25T22:42:18.666Z,91.40
2019-02-25T22:44:49.554Z,91.70
2019-02-25T22:47:20.855Z,91.60
2019-02-25T22:49:49.824Z,91.60
2019-02-25T22:52:22.094Z,91.60
2019-02-25T22:54:52.131Z,91.50
2019-02-25T22:57:23.025Z,91.60
2019-02-25T22:59:52.391Z,91.50
2019-02-25T23:02:25.132Z,91.70
2019-02-25T23:04:54.104Z,91.50
2019-02-25T23:07:24.591Z,91.40
2019-02-25T23:09:54.495Z,91.50
2019-02-25T23:12:24.259Z,91.50
2019-02-25T23:14:56.066Z,91.60
2019-02-25T23:17:25.656Z,91.80
2019-02-25T23:19:54.893Z,92.20
2019-02-25T23:22:24.125Z,92.20
2019-02-25T23:24:53.371Z,92.00
2019-02-25T23:27:22.573Z,91.90
2019-02-25T23:29:51.795Z,91.70
2019-02-25T23:32:20.977Z,92.00
2019-02-25T23:34:52.628Z,92.00
2019-02-25T23:37:21.726Z,91.90
2019-02-25T23:39:52.126Z,92.00
2019-02-25T23:42:21.411Z,92.10
2019-02-25T23:44:50.619Z,92.00
2019-02-25T23:47:19.848Z,92.30
2019-02-25T23:49:49.054Z,92.80
2019-02-25T23:52:18.312Z,93.10
2019-02-25T23:54:49.523Z,93.20
2019-02-25T23:57:19.829Z,93.10
2019-02-25T23:59:51.120Z,92.90
